Weather at Donzdorf Airport

Public forecast

Using degrees Celsius for public forecast. Weather courtesy of forecast.io.

Closest aviation weather report (METAR) to Donzdorf Airport

Closest report is Stuttgart Airport, 24.7 nm (45.7 km) W. Retrieved 2020/09/26 00:20 UTC (34 minutes ago):

EDDS 260020Z 26012KT 220V280 9999 -RA FEW015 BKN035 08/06 Q1002

Closest aviation forecast (TAF) to Donzdorf Airport

Closest forecast is Stuttgart Airport, 24.7 nm (45.7 km) W. Retrieved 2020-09-26 00:27 UTC (27 minutes ago):

TAF TAF EDDS 252300Z 2600/2624 24006KT 9999 FEW020 BKN040 BECMG 2602/2604 24011KT TEMPO 2608/2616 25015G25KT TEMPO 2608/2624 RA